Time;durP1;ratioP1;P1;durP2;ratioP2;P2;SDS_P1;SDS_P2;PMS_P1;PMS_P2;Temp;Humidity;BMP_temperature;BMP_pressure;BME280_temperature;BME280_humidity;BME280_pressure;Samples;Min_cycle;Max_cycle;Signal;HPM_P1;HPM_P2
2022/09/10 00:00:33;;;;;;;23.73;20.30;;;14.60;99.90;;;;;;5051850;28;20080;-46
2022/09/10 00:03:01;;;;;;;22.33;19.88;;;14.60;99.90;;;;;;5051953;28;20448;-45
2022/09/10 00:05:26;;;;;;;22.05;19.75;;;14.80;99.90;;;;;;5051281;28;20067;-45
2022/09/10 00:07:52;;;;;;;22.58;20.27;;;14.60;99.90;;;;;;5051857;28;20099;-47
2022/09/10 00:10:18;;;;;;;22.05;19.80;;;14.50;99.90;;;;;;5051778;28;20041;-47
2022/09/10 00:12:47;;;;;;;23.98;21.45;;;14.50;99.90;;;;;;5033623;28;20033;-49
2022/09/10 00:15:14;;;;;;;24.05;20.02;;;14.70;99.90;;;;;;5050829;28;20119;-48
2022/09/10 00:17:40;;;;;;;23.27;20.70;;;14.50;99.90;;;;;;5050422;28;20041;-48
2022/09/10 00:20:06;;;;;;;23.58;21.08;;;14.50;99.90;;;;;;5051708;28;20091;-47
2022/09/10 00:22:33;;;;;;;24.00;21.40;;;14.50;99.90;;;;;;5051491;28;20037;-46
2022/09/10 00:24:58;;;;;;;23.90;21.42;;;14.40;99.90;;;;;;5051749;28;20052;-47
2022/09/10 00:27:25;;;;;;;25.20;22.50;;;14.40;99.90;;;;;;5051533;28;20475;-46
2022/09/10 00:29:54;;;;;;;24.40;21.88;;;14.60;99.90;;;;;;5051330;28;20389;-47
2022/09/10 00:32:20;;;;;;;25.15;22.45;;;14.70;99.90;;;;;;5050105;28;20033;-46
2022/09/10 00:34:47;;;;;;;25.20;22.45;;;14.50;99.90;;;;;;5050713;28;20098;-48
2022/09/10 00:37:13;;;;;;;25.15;22.30;;;14.40;99.90;;;;;;5050409;28;20071;-45
2022/09/10 00:39:39;;;;;;;26.00;22.77;;;14.70;99.90;;;;;;5051448;28;20044;-51
2022/09/10 00:42:05;;;;;;;26.08;23.35;;;14.60;99.90;;;;;;5049977;28;20040;-51
2022/09/10 00:44:40;;;;;;;27.15;24.08;;;14.70;99.90;;;;;;5051616;28;20032;-46
2022/09/10 00:47:25;;;;;;;28.92;23.85;;;14.60;99.90;;;;;;5051044;28;20395;-50
2022/09/10 00:50:16;;;;;;;30.35;24.17;;;14.90;99.90;;;;;;5051305;28;20045;-49
2022/09/10 00:52:42;;;;;;;27.58;24.40;;;15.00;99.90;;;;;;5050812;28;20051;-47
2022/09/10 00:55:09;;;;;;;27.63;24.40;;;14.80;99.90;;;;;;5051280;28;20033;-50
2022/09/10 00:57:35;;;;;;;28.00;25.00;;;14.90;99.90;;;;;;5051014;28;20033;-48
2022/09/10 01:00:07;;;;;;;28.02;25.13;;;14.80;99.90;;;;;;5050668;28;20037;-49
2022/09/10 01:02:32;;;;;;;28.60;23.23;;;14.90;99.90;;;;;;5050992;28;20426;-47
2022/09/10 01:05:00;;;;;;;26.85;23.95;;;15.00;99.90;;;;;;5015551;28;20045;-47
2022/09/10 01:07:29;;;;;;;27.23;24.25;;;15.10;99.90;;;;;;5024384;28;20152;-49
2022/09/10 01:10:00;;;;;;;28.95;24.00;;;14.80;99.90;;;;;;5050629;28;20029;-49
2022/09/10 01:12:43;;;;;;;27.67;24.75;;;14.90;99.90;;;;;;5050533;28;20053;-47
2022/09/10 01:15:32;;;;;;;27.40;24.13;;;15.00;99.90;;;;;;5050037;28;20044;-48
2022/09/10 01:18:04;;;;;;;31.63;25.52;;;14.80;99.90;;;;;;5050436;28;20044;-45
2022/09/10 01:20:40;;;;;;;28.33;25.27;;;14.90;99.90;;;;;;5050641;28;20125;-48
2022/09/10 01:23:36;;;;;;;29.33;24.00;;;15.00;99.90;;;;;;5050322;28;20037;-50
2022/09/10 01:26:24;;;;;;;29.17;24.88;;;14.70;99.90;;;;;;5049183;28;20033;-50
2022/09/10 01:28:54;;;;;;;27.60;24.65;;;14.90;99.90;;;;;;5050349;28;20041;-47
2022/09/10 01:31:38;;;;;;;29.90;25.23;;;14.80;99.90;;;;;;5050829;28;20120;-46
2022/09/10 01:34:20;;;;;;;27.83;24.90;;;15.00;99.90;;;;;;5050429;28;20045;-49
2022/09/10 01:36:52;;;;;;;29.40;25.90;;;14.80;99.90;;;;;;5049963;28;20040;-44
2022/09/10 01:39:20;;;;;;;29.25;24.65;;;14.90;99.90;;;;;;5050840;28;20029;-48
2022/09/10 01:41:47;;;;;;;30.20;25.10;;;14.60;99.90;;;;;;5050686;28;20170;-49
2022/09/10 01:44:44;;;;;;;27.95;25.00;;;14.70;99.90;;;;;;5050291;28;20127;-48
2022/09/10 01:47:36;;;;;;;28.15;24.38;;;14.70;99.90;;;;;;5051007;28;20120;-47
2022/09/10 01:50:28;;;;;;;30.15;24.95;;;14.80;99.90;;;;;;5054567;28;20052;-47
2022/09/10 01:53:15;;;;;;;29.05;24.95;;;14.80;99.90;;;;;;5023211;28;20045;-46
2022/09/10 01:55:49;;;;;;;28.10;24.45;;;14.70;99.90;;;;;;5054245;28;20043;-47
2022/09/10 01:58:29;;;;;;;30.35;24.75;;;14.80;99.90;;;;;;5054198;28;20487;-45
2022/09/10 02:01:10;;;;;;;26.10;23.40;;;14.70;99.90;;;;;;5054501;28;20516;-47
2022/09/10 02:03:39;;;;;;;30.30;24.70;;;14.80;99.90;;;;;;5053767;28;20047;-46
2022/09/10 02:06:09;;;;;;;28.10;24.55;;;14.90;99.90;;;;;;5053869;28;20120;-46
2022/09/10 02:08:38;;;;;;;28.15;24.02;;;14.80;99.90;;;;;;5054649;28;20120;-48
2022/09/10 02:11:08;;;;;;;31.30;24.63;;;15.00;99.90;;;;;;5053486;28;20044;-48
2022/09/10 02:13:35;;;;;;;27.80;23.90;;;14.80;99.90;;;;;;5027908;28;20170;-47
2022/09/10 02:16:03;;;;;;;28.50;23.27;;;14.80;99.90;;;;;;5053974;28;20042;-48
2022/09/10 02:18:31;;;;;;;30.13;25.10;;;14.90;99.90;;;;;;5053902;28;20047;-47
2022/09/10 02:20:59;;;;;;;32.15;25.00;;;15.00;99.90;;;;;;5053550;28;20048;-47
2022/09/10 02:23:30;;;;;;;29.67;24.20;;;14.90;99.90;;;;;;5053858;28;20433;-50
2022/09/10 02:25:57;;;;;;;33.42;25.40;;;15.20;99.90;;;;;;5053624;28;20083;-48
2022/09/10 02:28:23;;;;;;;29.98;24.33;;;15.10;99.90;;;;;;5052641;28;20055;-49
2022/09/10 02:30:48;;;;;;;32.88;25.25;;;15.00;99.90;;;;;;5053538;28;20037;-48
2022/09/10 02:33:17;;;;;;;29.08;24.27;;;15.20;99.90;;;;;;5053738;28;20032;-48
2022/09/10 02:35:43;;;;;;;31.88;24.52;;;15.10;99.90;;;;;;5052867;28;20108;-46
2022/09/10 02:38:09;;;;;;;29.88;24.33;;;15.10;99.90;;;;;;5053672;28;20033;-47
2022/09/10 02:40:35;;;;;;;30.63;23.25;;;15.10;99.90;;;;;;5053738;28;20041;-48
2022/09/10 02:43:01;;;;;;;30.00;22.63;;;15.20;99.90;;;;;;5053437;28;20449;-48
2022/09/10 02:45:27;;;;;;;29.17;22.90;;;15.10;99.90;;;;;;5035357;28;20071;-49
2022/09/10 02:47:53;;;;;;;30.98;21.73;;;15.10;99.90;;;;;;5053343;28;20036;-49
2022/09/10 02:50:19;;;;;;;27.38;22.75;;;15.30;99.90;;;;;;5052877;28;20041;-47
2022/09/10 02:52:45;;;;;;;30.20;23.27;;;15.30;99.90;;;;;;5053381;28;20075;-46
2022/09/10 02:55:11;;;;;;;25.88;21.23;;;15.30;99.90;;;;;;5053341;28;20045;-48
2022/09/10 02:57:38;;;;;;;24.05;21.33;;;15.30;99.90;;;;;;5050840;28;20071;-50
2022/09/10 03:00:06;;;;;;;26.70;20.65;;;15.30;99.90;;;;;;5052661;28;20045;-49
2022/09/10 03:02:31;;;;;;;26.00;19.60;;;15.30;99.90;;;;;;5052878;28;20041;-48
2022/09/10 03:04:57;;;;;;;24.20;19.20;;;15.20;99.90;;;;;;5034445;28;21014;-47
2022/09/10 03:07:23;;;;;;;24.55;19.75;;;15.30;99.90;;;;;;5052960;28;20785;-48
2022/09/10 03:09:49;;;;;;;26.77;20.23;;;15.00;99.90;;;;;;5053162;28;20475;-48
2022/09/10 03:12:15;;;;;;;26.70;21.08;;;15.10;99.90;;;;;;5052303;28;20044;-50
2022/09/10 03:14:42;;;;;;;24.80;19.00;;;15.30;99.90;;;;;;5052641;28;20064;-49
2022/09/10 03:17:08;;;;;;;22.98;19.42;;;15.30;99.90;;;;;;5052485;28;20032;-49
2022/09/10 03:19:34;;;;;;;24.48;19.95;;;15.10;99.90;;;;;;5052437;28;20475;-49
2022/09/10 03:22:00;;;;;;;25.35;20.13;;;15.20;99.90;;;;;;5052251;28;20398;-46
2022/09/10 03:24:27;;;;;;;25.33;20.30;;;15.10;99.90;;;;;;5052427;28;20044;-46
2022/09/10 03:26:53;;;;;;;22.75;18.90;;;15.10;99.90;;;;;;5052673;28;20064;-46
2022/09/10 03:29:19;;;;;;;26.27;19.50;;;15.00;99.90;;;;;;5052600;28;20036;-48
2022/09/10 03:31:45;;;;;;;28.30;20.00;;;15.00;99.90;;;;;;5052446;28;20032;-49
2022/09/10 03:34:11;;;;;;;22.08;19.63;;;15.20;99.90;;;;;;5052306;28;20083;-47
2022/09/10 03:36:37;;;;;;;28.00;20.58;;;15.00;99.90;;;;;;5051932;28;20385;-45
2022/09/10 03:39:03;;;;;;;23.60;20.48;;;15.20;99.90;;;;;;5052510;28;20040;-50
2022/09/10 03:41:29;;;;;;;23.48;19.77;;;15.10;99.90;;;;;;5052345;28;20126;-48
2022/09/10 03:43:56;;;;;;;25.27;20.10;;;15.00;99.90;;;;;;5052480;28;20107;-47
2022/09/10 03:46:22;;;;;;;26.90;20.23;;;15.00;99.90;;;;;;5052325;28;20049;-48
2022/09/10 03:48:48;;;;;;;26.60;19.90;;;15.00;99.90;;;;;;5052102;28;20041;-45
2022/09/10 03:51:14;;;;;;;23.52;20.58;;;15.20;99.90;;;;;;5051780;28;20395;-50
2022/09/10 03:53:42;;;;;;;23.90;20.73;;;15.20;99.90;;;;;;5050212;28;20095;-45
2022/09/10 03:56:09;;;;;;;28.45;21.42;;;15.20;99.90;;;;;;5052156;28;20070;-45
2022/09/10 03:58:35;;;;;;;26.40;21.20;;;15.00;99.90;;;;;;5051960;28;20037;-46
2022/09/10 04:01:01;;;;;;;26.25;21.83;;;14.90;99.90;;;;;;5051944;28;20045;-49
2022/09/10 04:03:28;;;;;;;28.05;21.90;;;15.00;99.90;;;;;;5061817;28;20047;-46
2022/09/10 04:05:54;;;;;;;32.10;22.83;;;15.10;99.90;;;;;;5050824;28;20048;-45
2022/09/10 04:08:20;;;;;;;33.58;23.05;;;15.20;99.90;;;;;;5051413;28;20037;-46
2022/09/10 04:10:47;;;;;;;32.20;23.17;;;14.90;99.90;;;;;;5050479;28;20539;-48
2022/09/10 04:13:13;;;;;;;28.23;22.80;;;15.10;99.90;;;;;;5033262;28;20061;-47
2022/09/10 04:15:42;;;;;;;31.20;23.10;;;15.20;99.90;;;;;;5049547;28;20094;-45
2022/09/10 04:18:08;;;;;;;31.30;23.13;;;15.20;99.90;;;;;;5046511;28;20127;-47
2022/09/10 04:20:35;;;;;;;30.88;23.30;;;15.00;99.90;;;;;;5048691;28;20036;-45
2022/09/10 04:23:01;;;;;;;30.70;22.50;;;15.20;99.90;;;;;;5050964;28;20094;-48
2022/09/10 04:25:27;;;;;;;29.65;23.27;;;15.10;99.90;;;;;;5049825;28;20051;-46
2022/09/10 04:27:53;;;;;;;29.70;22.88;;;15.10;99.90;;;;;;5033387;28;20434;-44
2022/09/10 04:30:19;;;;;;;28.63;23.13;;;15.00;99.90;;;;;;5051305;28;20124;-47
2022/09/10 04:32:45;;;;;;;31.00;22.92;;;14.80;99.90;;;;;;5051086;28;20060;-50
2022/09/10 04:35:14;;;;;;;30.45;23.35;;;15.00;99.90;;;;;;5050972;28;20029;-47
2022/09/10 04:37:40;;;;;;;30.48;23.65;;;14.80;99.90;;;;;;5051451;28;20087;-48
2022/09/10 04:40:06;;;;;;;34.85;24.63;;;14.90;99.90;;;;;;5048436;28;20072;-48
2022/09/10 04:42:32;;;;;;;34.83;25.10;;;15.10;99.90;;;;;;5051347;28;20079;-48
2022/09/10 04:44:58;;;;;;;32.13;24.63;;;14.80;99.90;;;;;;5051260;28;20476;-47
2022/09/10 04:47:23;;;;;;;32.40;24.48;;;15.00;99.90;;;;;;5051070;28;20387;-47
2022/09/10 04:49:49;;;;;;;29.90;23.42;;;14.80;99.90;;;;;;5049961;28;20036;-48
2022/09/10 04:52:21;;;;;;;31.23;24.75;;;14.80;99.90;;;;;;5051066;28;20045;-49
2022/09/10 04:54:47;;;;;;;34.45;24.45;;;14.80;99.90;;;;;;5050987;28;20045;-50
2022/09/10 04:57:13;;;;;;;31.70;24.02;;;15.10;99.90;;;;;;5050973;28;20090;-47
2022/09/10 04:59:39;;;;;;;30.98;23.73;;;14.80;99.90;;;;;;5049890;28;20951;-49
2022/09/10 05:02:05;;;;;;;32.42;24.05;;;14.90;99.90;;;;;;5049190;28;20148;-49
2022/09/10 05:04:32;;;;;;;35.83;24.30;;;15.10;99.90;;;;;;5049632;28;20037;-48
2022/09/10 05:06:57;;;;;;;34.08;24.08;;;14.80;99.90;;;;;;5050173;28;20048;-45
2022/09/10 05:09:23;;;;;;;33.22;23.98;;;14.80;99.90;;;;;;5050567;28;20044;-50
2022/09/10 05:11:49;;;;;;;33.25;25.38;;;14.80;99.90;;;;;;5050777;28;20048;-45
2022/09/10 05:14:14;;;;;;;34.67;24.48;;;15.10;99.90;;;;;;5050524;28;20045;-48
2022/09/10 05:16:40;;;;;;;36.78;25.30;;;14.90;99.90;;;;;;5050886;28;20104;-44
2022/09/10 05:19:06;;;;;;;34.22;25.27;;;14.90;99.90;;;;;;5050734;28;20044;-50
2022/09/10 05:21:32;;;;;;;37.50;26.88;;;14.90;99.90;;;;;;5050436;28;20116;-46
2022/09/10 05:23:58;;;;;;;32.85;24.95;;;15.10;99.90;;;;;;5050548;28;20043;-50
2022/09/10 05:26:26;;;;;;;37.17;26.83;;;14.90;99.90;;;;;;5050730;28;20037;-46
2022/09/10 05:28:52;;;;;;;36.45;27.52;;;14.90;99.90;;;;;;5050533;28;20044;-49
2022/09/10 05:31:18;;;;;;;38.30;27.48;;;15.20;99.90;;;;;;5050527;28;20044;-47
2022/09/10 05:33:45;;;;;;;34.67;25.40;;;14.90;99.90;;;;;;5032351;28;20044;-46
2022/09/10 05:36:13;;;;;;;38.50;27.85;;;15.30;99.90;;;;;;5050255;28;20040;-47
2022/09/10 05:38:39;;;;;;;33.78;27.48;;;15.30;99.90;;;;;;5050547;28;20041;-47
2022/09/10 05:41:09;;;;;;;36.50;26.75;;;15.20;99.90;;;;;;5050563;28;20044;-47
2022/09/10 05:43:35;;;;;;;37.25;28.00;;;15.30;99.90;;;;;;5050259;28;20068;-47
2022/09/10 05:46:02;;;;;;;36.22;27.38;;;15.10;99.90;;;;;;5050407;28;20033;-48
2022/09/10 05:48:27;;;;;;;39.13;26.60;;;15.10;99.90;;;;;;5050637;28;20033;-45
2022/09/10 05:50:53;;;;;;;38.65;27.55;;;15.40;99.90;;;;;;5050317;28;20067;-45
2022/09/10 05:53:20;;;;;;;33.13;26.83;;;15.10;99.90;;;;;;5048993;28;20039;-47
2022/09/10 05:55:46;;;;;;;36.35;26.17;;;15.30;99.90;;;;;;5050537;28;20545;-48
2022/09/10 05:58:12;;;;;;;35.13;27.30;;;15.10;99.90;;;;;;5050608;28;20036;-48
2022/09/10 06:00:38;;;;;;;36.80;25.65;;;15.40;99.90;;;;;;5050003;28;20064;-49
2022/09/10 06:03:04;;;;;;;33.80;26.10;;;15.50;99.90;;;;;;5050210;28;20041;-46
2022/09/10 06:05:30;;;;;;;33.05;25.88;;;15.40;99.90;;;;;;5049790;28;20045;-50
2022/09/10 06:07:56;;;;;;;33.45;26.67;;;15.30;99.90;;;;;;5032705;28;20067;-47
2022/09/10 06:10:21;;;;;;;38.92;27.67;;;15.40;99.90;;;;;;5050125;28;20288;-46
2022/09/10 06:12:50;;;;;;;36.20;27.10;;;15.30;99.90;;;;;;5049656;28;20049;-47
2022/09/10 06:15:18;;;;;;;36.30;26.63;;;15.60;99.90;;;;;;5050114;28;20075;-51
2022/09/10 06:17:44;;;;;;;35.28;26.73;;;15.50;99.90;;;;;;5050189;28;20045;-49
2022/09/10 06:20:11;;;;;;;35.90;26.85;;;15.30;99.90;;;;;;5050216;28;20171;-51
2022/09/10 06:22:38;;;;;;;36.45;25.75;;;15.50;99.90;;;;;;5050432;28;20064;-50
2022/09/10 06:25:05;;;;;;;36.05;26.88;;;15.40;99.90;;;;;;5049126;28;20048;-45
2022/09/10 06:27:31;;;;;;;37.75;27.80;;;15.70;99.90;;;;;;5048073;28;20043;-50
2022/09/10 06:29:56;;;;;;;37.88;25.88;;;15.80;99.90;;;;;;5031651;28;20484;-48
2022/09/10 06:32:22;;;;;;;32.33;24.85;;;15.70;99.90;;;;;;5031654;28;20048;-46
2022/09/10 06:34:48;;;;;;;34.42;25.48;;;15.70;99.90;;;;;;5032654;28;20475;-46
2022/09/10 06:37:14;;;;;;;35.83;26.30;;;15.80;99.90;;;;;;5046963;28;20151;-46
2022/09/10 06:39:40;;;;;;;32.95;24.67;;;15.80;99.90;;;;;;5051082;28;20033;-47
2022/09/10 06:42:06;;;;;;;31.52;23.50;;;16.00;99.90;;;;;;5051929;28;20044;-47
2022/09/10 06:44:32;;;;;;;34.85;25.13;;;15.80;99.90;;;;;;5052494;28;20519;-47
2022/09/10 06:46:57;;;;;;;29.45;23.70;;;16.00;99.90;;;;;;5052928;28;20032;-48
2022/09/10 06:49:23;;;;;;;30.92;24.10;;;15.90;99.90;;;;;;5051374;28;20136;-48
2022/09/10 06:51:49;;;;;;;30.23;23.52;;;15.70;99.90;;;;;;5050485;28;20041;-49
2022/09/10 06:54:16;;;;;;;37.28;24.95;;;15.70;99.90;;;;;;5052630;28;20032;-48
2022/09/10 06:56:42;;;;;;;30.27;23.30;;;15.70;99.90;;;;;;5053538;28;20041;-46
2022/09/10 06:59:08;;;;;;;32.40;23.70;;;16.00;99.90;;;;;;5050578;28;20067;-48
2022/09/10 07:01:34;;;;;;;30.58;24.10;;;16.10;99.90;;;;;;5047838;28;20459;-47
2022/09/10 07:04:01;;;;;;;31.65;23.27;;;16.00;99.90;;;;;;5035521;28;20040;-47
2022/09/10 07:06:33;;;;;;;35.95;25.35;;;15.90;99.90;;;;;;5042139;28;20183;-49
2022/09/10 07:08:59;;;;;;;28.65;22.67;;;16.20;99.90;;;;;;5041541;28;20040;-45
2022/09/10 07:11:27;;;;;;;28.35;22.67;;;15.90;99.90;;;;;;5048959;28;20097;-47
2022/09/10 07:13:53;;;;;;;31.38;23.05;;;16.10;99.90;;;;;;5027754;28;20061;-45
2022/09/10 07:16:21;;;;;;;31.13;20.88;;;16.00;99.90;;;;;;5030730;28;20052;-48
2022/09/10 07:18:48;;;;;;;26.73;20.60;;;16.30;99.90;;;;;;5026575;28;20447;-48
2022/09/10 07:21:15;;;;;;;25.17;19.67;;;16.10;99.90;;;;;;5031014;28;20036;-48
2022/09/10 07:23:43;;;;;;;25.05;19.10;;;16.30;99.90;;;;;;5027368;28;20358;-48
2022/09/10 07:26:11;;;;;;;21.73;17.40;;;16.20;99.90;;;;;;5029617;28;20029;-47
2022/09/10 07:28:38;;;;;;;20.48;16.45;;;16.40;99.90;;;;;;5031544;28;20044;-49
2022/09/10 07:31:17;;;;;;;20.50;16.02;;;16.50;99.90;;;;;;5021818;28;20549;-46
2022/09/10 07:33:43;;;;;;;21.92;16.65;;;16.60;99.90;;;;;;5027299;28;20522;-50
2022/09/10 07:36:11;;;;;;;21.83;16.52;;;16.60;99.90;;;;;;5025550;28;20480;-47
2022/09/10 07:38:37;;;;;;;21.83;16.35;;;16.70;99.90;;;;;;5024135;28;20116;-47
2022/09/10 07:41:03;;;;;;;21.67;15.48;;;16.80;99.90;;;;;;5030366;28;20751;-47
2022/09/10 07:43:29;;;;;;;20.95;16.02;;;16.70;99.90;;;;;;5028653;28;20041;-47
2022/09/10 07:45:55;;;;;;;18.33;14.95;;;16.80;99.90;;;;;;5030009;28;20120;-46
2022/09/10 07:48:21;;;;;;;19.48;14.50;;;16.90;99.90;;;;;;5030123;28;20132;-47
2022/09/10 07:50:47;;;;;;;20.05;16.17;;;16.90;99.90;;;;;;5032235;28;20132;-50
2022/09/10 07:53:13;;;;;;;24.67;17.05;;;16.90;99.90;;;;;;5031396;28;20330;-48
2022/09/10 07:55:39;;;;;;;21.35;15.60;;;16.70;99.90;;;;;;5028336;28;20041;-46
2022/09/10 07:58:05;;;;;;;22.20;17.13;;;16.70;99.90;;;;;;5030900;28;20025;-49
2022/09/10 08:00:30;;;;;;;22.98;15.88;;;16.80;99.90;;;;;;5030998;28;20041;-48
2022/09/10 08:02:56;;;;;;;21.42;16.27;;;17.00;99.90;;;;;;5029587;28;20044;-49
2022/09/10 08:05:22;;;;;;;20.30;15.32;;;17.00;99.90;;;;;;5031256;28;20498;-46
2022/09/10 08:07:53;;;;;;;21.02;15.13;;;16.90;99.90;;;;;;5028941;28;20033;-46
2022/09/10 08:10:19;;;;;;;18.67;14.95;;;16.90;99.90;;;;;;5028033;28;20040;-47
2022/09/10 08:12:45;;;;;;;18.67;14.48;;;17.00;99.90;;;;;;5031619;28;20088;-46
2022/09/10 08:15:11;;;;;;;20.08;14.40;;;16.90;99.90;;;;;;5039786;28;20083;-48
2022/09/10 08:17:37;;;;;;;22.20;15.38;;;17.20;99.90;;;;;;5043955;28;20028;-45
2022/09/10 08:20:06;;;;;;;21.77;15.07;;;17.30;99.90;;;;;;5044713;28;20044;-47
2022/09/10 08:22:33;;;;;;;23.08;14.10;;;17.20;99.90;;;;;;5049474;28;20438;-46
2022/09/10 08:24:59;;;;;;;18.05;14.25;;;17.20;99.90;;;;;;5048997;28;20120;-50
2022/09/10 08:27:25;;;;;;;16.73;13.02;;;17.10;99.90;;;;;;5051008;28;20467;-49
2022/09/10 08:29:53;;;;;;;16.90;12.95;;;17.10;99.90;;;;;;5031411;28;20124;-45
2022/09/10 08:32:19;;;;;;;17.48;13.77;;;17.20;99.90;;;;;;5051303;28;20473;-47
2022/09/10 08:34:45;;;;;;;17.08;13.65;;;17.30;99.90;;;;;;5048071;28;20486;-47
2022/09/10 08:37:11;;;;;;;21.20;14.07;;;17.20;99.90;;;;;;5040173;28;20060;-49
2022/09/10 08:39:37;;;;;;;17.77;13.55;;;17.30;99.90;;;;;;5041963;28;20044;-46
2022/09/10 08:42:26;;;;;;;16.90;13.00;;;17.40;99.90;;;;;;5049733;28;20106;-50
2022/09/10 08:44:58;;;;;;;18.33;12.48;;;17.50;99.90;;;;;;5046697;28;20063;-47
2022/09/10 08:47:32;;;;;;;18.20;12.73;;;17.80;99.90;;;;;;5030246;28;20662;-48
2022/09/10 08:50:12;;;;;;;14.70;11.57;;;17.80;99.90;;;;;;5050829;28;20738;-48
2022/09/10 08:52:42;;;;;;;13.27;10.82;;;17.90;99.90;;;;;;5051120;28;20051;-48
2022/09/10 08:55:16;;;;;;;15.60;11.07;;;18.00;99.90;;;;;;5050848;28;20033;-48
2022/09/10 08:57:47;;;;;;;14.43;10.93;;;18.10;99.90;;;;;;5050806;28;20048;-48
2022/09/10 09:00:21;;;;;;;11.90;10.10;;;18.20;99.90;;;;;;5051174;28;20395;-46
2022/09/10 09:03:17;;;;;;;14.38;9.52;;;18.30;99.90;;;;;;5051180;28;20116;-47
2022/09/10 09:05:54;;;;;;;14.00;10.18;;;18.10;99.90;;;;;;5051071;28;20082;-48
2022/09/10 09:08:47;;;;;;;15.18;10.60;;;18.30;99.90;;;;;;5050755;28;20174;-49
2022/09/10 09:11:50;;;;;;;13.77;10.25;;;18.30;99.90;;;;;;5050547;28;20082;-44
2022/09/10 09:14:35;;;;;;;12.65;10.13;;;18.20;99.90;;;;;;5039480;28;20037;-48
2022/09/10 09:17:24;;;;;;;;;;;18.30;99.90;;;;;;5051406;28;20498;-46
2022/09/10 09:20:13;;;;;;;14.52;10.15;;;18.20;99.90;;;;;;5044966;28;19916;-48
2022/09/10 09:22:50;;;;;;;12.18;9.38;;;18.20;99.90;;;;;;5050977;28;20144;-48
2022/09/10 09:25:51;;;;;;;15.20;9.70;;;18.10;99.90;;;;;;5050934;28;20065;-48
2022/09/10 09:28:31;;;;;;;12.93;9.38;;;18.20;99.90;;;;;;5028692;28;20048;-48
2022/09/10 09:31:04;;;;;;;13.52;9.10;;;18.10;99.90;;;;;;5050843;28;20134;-49
2022/09/10 09:33:31;;;;;;;11.82;9.15;;;18.20;99.90;;;;;;5050986;28;20486;-45
2022/09/10 09:35:59;;;;;;;11.13;8.10;;;18.20;99.90;;;;;;5050271;28;20116;-46
2022/09/10 09:38:31;;;;;;;13.10;8.77;;;18.30;99.90;;;;;;5050591;28;20032;-46
2022/09/10 09:41:07;;;;;;;13.50;9.20;;;18.70;99.90;;;;;;5050658;28;20138;-46
2022/09/10 09:43:57;;;;;;;13.57;9.63;;;18.70;99.90;;;;;;5049188;28;20479;-47
2022/09/10 09:46:23;;;;;;;14.32;9.10;;;18.60;99.90;;;;;;5050825;28;20140;-46
2022/09/10 09:48:54;;;;;;;14.25;9.73;;;18.50;99.90;;;;;;5050670;28;20076;-47
2022/09/10 09:51:20;;;;;;;10.93;7.90;;;18.40;99.90;;;;;;5050607;28;20090;-49
2022/09/10 09:53:54;;;;;;;12.75;8.65;;;18.50;99.90;;;;;;5050126;28;20041;-48
2022/09/10 09:56:41;;;;;;;13.55;9.18;;;18.40;99.90;;;;;;5050565;28;20044;-48
2022/09/10 09:59:30;;;;;;;11.52;8.95;;;18.50;99.90;;;;;;5050343;28;20052;-47
2022/09/10 10:02:08;;;;;;;14.48;9.90;;;18.60;99.90;;;;;;5050565;28;20585;-47
2022/09/10 10:04:34;;;;;;;14.02;9.23;;;18.80;99.90;;;;;;5048977;28;20051;-48
2022/09/10 10:07:00;;;;;;;13.70;9.25;;;19.10;99.90;;;;;;5049682;28;20408;-49
2022/09/10 10:09:26;;;;;;;10.43;7.22;;;19.40;99.90;;;;;;5051904;28;20047;-50
2022/09/10 10:11:54;;;;;;;10.45;6.22;;;19.60;99.90;;;;;;5054197;28;20052;-47
2022/09/10 10:14:19;;;;;;;10.75;6.68;;;19.90;99.90;;;;;;5053768;28;20407;-47
2022/09/10 10:16:53;;;;;;;9.07;5.95;;;20.00;99.90;;;;;;5053809;28;20071;-48
2022/09/10 10:19:27;;;;;;;11.23;4.53;;;20.20;99.90;;;;;;5053944;28;20156;-50
2022/09/10 10:21:53;;;;;;;6.28;3.58;;;20.00;99.90;;;;;;5053990;28;20040;-50
2022/09/10 10:24:31;;;;;;;6.88;3.72;;;20.00;99.90;;;;;;5054101;28;20059;-49
2022/09/10 10:26:58;;;;;;;4.82;2.75;;;20.00;99.90;;;;;;5054030;28;20079;-47
2022/09/10 10:29:24;;;;;;;5.80;2.70;;;20.20;99.90;;;;;;5053756;28;20131;-49
2022/09/10 10:31:50;;;;;;;5.35;2.65;;;20.30;99.90;;;;;;5053858;28;20128;-49
2022/09/10 10:34:31;;;;;;;5.65;3.20;;;20.40;99.90;;;;;;5053900;28;20037;-47
2022/09/10 10:37:11;;;;;;;5.15;2.90;;;20.30;99.90;;;;;;5053368;28;20048;-47
2022/09/10 10:40:02;;;;;;;4.90;2.63;;;20.40;99.90;;;;;;5053566;28;20087;-46
2022/09/10 10:42:39;;;;;;;5.78;2.83;;;20.60;99.90;;;;;;5048491;28;20049;-49
2022/09/10 10:45:13;;;;;;;6.70;2.75;;;20.70;99.90;;;;;;5053525;28;20044;-45
2022/09/10 10:47:42;;;;;;;;;;;20.70;99.90;;;;;;5053651;28;20034;-48
2022/09/10 10:50:24;;;;;;;6.65;3.60;;;20.60;99.90;;;;;;5053312;28;19920;-50
2022/09/10 10:53:14;;;;;;;7.60;3.67;;;20.40;99.90;;;;;;5053573;28;20044;-50
2022/09/10 10:55:59;;;;;;;6.03;3.20;;;20.30;99.90;;;;;;5053213;28;20037;-48
2022/09/10 10:58:47;;;;;;;6.43;3.38;;;20.20;99.90;;;;;;5053337;28;20068;-47
2022/09/10 11:01:25;;;;;;;5.93;3.40;;;20.40;99.90;;;;;;5051662;28;20044;-48
2022/09/10 11:04:28;;;;;;;6.13;3.50;;;20.90;99.90;;;;;;5053164;28;20040;-49
2022/09/10 11:07:09;;;;;;;6.32;3.65;;;21.10;99.90;;;;;;5052772;28;20360;-47
2022/09/10 11:10:06;;;;;;;6.30;3.80;;;21.20;99.90;;;;;;5052837;28;20124;-50
2022/09/10 11:12:44;;;;;;;5.47;3.00;;;21.50;99.90;;;;;;5043668;28;20372;-48
2022/09/10 11:15:34;;;;;;;6.78;3.70;;;21.70;99.90;;;;;;5052646;28;20060;-47
2022/09/10 11:18:26;;;;;;;5.85;3.47;;;21.70;99.90;;;;;;5052793;28;20124;-47
2022/09/10 11:21:03;;;;;;;10.23;3.88;;;22.00;99.90;;;;;;5051649;28;20119;-47
2022/09/10 11:23:56;;;;;;;6.50;3.28;;;22.30;99.90;;;;;;5051412;28;20060;-49
2022/09/10 11:26:37;;;;;;;6.63;3.92;;;22.20;99.90;;;;;;5052893;28;20094;-47
2022/09/10 11:29:18;;;;;;;7.25;3.50;;;22.40;99.90;;;;;;5052350;28;20045;-51
2022/09/10 11:31:48;;;;;;;5.82;3.28;;;22.50;99.90;;;;;;5052739;28;20073;-49
2022/09/10 11:34:24;;;;;;;7.15;3.40;;;22.80;99.90;;;;;;5053058;28;20442;-47
2022/09/10 11:37:24;;;;;;;7.18;3.45;;;23.10;99.90;;;;;;5052308;28;20076;-46
2022/09/10 11:39:54;;;;;;;4.30;2.50;;;23.20;99.90;;;;;;5052663;28;20094;-46
2022/09/10 11:42:39;;;;;;;4.38;2.33;;;23.30;99.90;;;;;;5052431;28;20080;-48
2022/09/10 11:45:22;;;;;;;4.05;1.63;;;23.10;99.90;;;;;;5052549;28;20091;-51
2022/09/10 11:47:56;;;;;;;3.95;1.60;;;22.80;99.90;;;;;;5052520;28;20732;-47
2022/09/10 11:50:31;;;;;;;4.10;1.60;;;22.90;99.90;;;;;;5052294;28;20040;-47
2022/09/10 11:52:58;;;;;;;4.90;1.75;;;22.50;99.90;;;;;;5051506;28;20037;-47
2022/09/10 11:56:03;;;;;;;5.32;1.80;;;22.50;99.90;;;;;;5052019;28;20492;-48
2022/09/10 11:59:04;;;;;;;4.55;1.83;;;22.60;99.90;;;;;;4986746;28;20487;-46
2022/09/10 12:02:06;;;;;;;4.32;1.70;;;23.20;99.90;;;;;;5051917;28;20077;-47
2022/09/10 12:04:59;;;;;;;4.28;1.83;;;23.40;99.90;;;;;;5052238;28;20065;-47
2022/09/10 12:07:40;;;;;;;4.75;1.60;;;23.60;99.90;;;;;;5051753;28;20036;-47
2022/09/10 12:10:15;;;;;;;5.60;2.03;;;23.60;99.90;;;;;;5051558;28;20076;-48
2022/09/10 12:12:44;;;;;;;4.22;1.95;;;24.30;99.90;;;;;;5051989;28;20045;-46
2022/09/10 12:15:18;;;;;;;5.70;1.67;;;24.00;99.90;;;;;;5051822;28;20400;-46
2022/09/10 12:17:47;;;;;;;4.72;1.83;;;24.30;99.90;;;;;;5052012;28;20075;-48
2022/09/10 12:20:18;;;;;;;3.72;1.38;;;23.90;99.90;;;;;;5051901;28;20051;-49
2022/09/10 12:22:46;;;;;;;4.93;1.63;;;23.80;99.90;;;;;;5050527;28;20056;-49
2022/09/10 12:25:15;;;;;;;7.10;1.80;;;23.30;99.90;;;;;;5051853;28;20048;-46
2022/09/10 12:27:52;;;;;;;3.80;1.77;;;22.90;99.90;;;;;;5051833;28;20526;-50
2022/09/10 12:30:24;;;;;;;4.22;2.10;;;22.60;99.90;;;;;;5051354;28;20033;-47
2022/09/10 12:32:52;;;;;;;5.45;2.95;;;22.40;99.90;;;;;;5039462;28;20037;-49
2022/09/10 12:35:36;;;;;;;7.03;2.72;;;22.50;99.90;;;;;;5051420;28;20041;-50
2022/09/10 12:38:39;;;;;;;5.25;2.58;;;22.30;99.90;;;;;;5051498;28;20044;-46
2022/09/10 12:41:09;;;;;;;4.68;2.58;;;22.20;99.90;;;;;;5051630;28;20036;-48
2022/09/10 12:43:38;;;;;;;5.53;2.90;;;22.30;99.90;;;;;;5051386;28;20033;-47
2022/09/10 12:46:18;;;;;;;9.07;2.92;;;22.30;99.90;;;;;;5051302;28;20044;-46
2022/09/10 12:48:49;;;;;;;8.55;2.83;;;22.70;99.90;;;;;;5050844;28;20098;-46
2022/09/10 12:51:18;;;;;;;5.13;2.75;;;22.90;99.90;;;;;;5033236;28;20037;-47
2022/09/10 12:53:46;;;;;;;8.50;3.35;;;22.80;99.90;;;;;;5051108;28;20029;-48